sensor_id;sensor_type;location;lat;lon;timestamp;temperature;humidity
16441;DHT22;8330;-33.858;151.184;2022-08-19T00:00:29;17.10;99.90
16441;DHT22;8330;-33.858;151.184;2022-08-19T00:03:00;17.10;99.90
16441;DHT22;8330;-33.858;151.184;2022-08-19T00:05:31;17.10;99.90
16441;DHT22;8330;-33.858;151.184;2022-08-19T00:08:02;17.10;99.90
16441;DHT22;8330;-33.858;151.184;2022-08-19T00:10:33;17.00;99.90
16441;DHT22;8330;-33.858;151.184;2022-08-19T00:13:04;17.00;99.90
16441;DHT22;8330;-33.858;151.184;2022-08-19T00:15:39;17.10;99.90
16441;DHT22;8330;-33.858;151.184;2022-08-19T00:18:12;17.10;99.90
16441;DHT22;8330;-33.858;151.184;2022-08-19T00:20:43;17.10;99.90
16441;DHT22;8330;-33.858;151.184;2022-08-19T00:23:13;17.10;99.90
16441;DHT22;8330;-33.858;151.184;2022-08-19T00:25:44;17.20;99.90
16441;DHT22;8330;-33.858;151.184;2022-08-19T00:28:15;17.20;99.90
16441;DHT22;8330;-33.858;151.184;2022-08-19T00:30:48;17.30;99.90
16441;DHT22;8330;-33.858;151.184;2022-08-19T00:33:19;17.30;99.90
16441;DHT22;8330;-33.858;151.184;2022-08-19T00:35:50;17.20;99.90
16441;DHT22;8330;-33.858;151.184;2022-08-19T00:38:21;17.30;99.90
16441;DHT22;8330;-33.858;151.184;2022-08-19T00:40:51;17.40;99.90
16441;DHT22;8330;-33.858;151.184;2022-08-19T00:43:24;17.40;99.90
16441;DHT22;8330;-33.858;151.184;2022-08-19T00:45:57;17.40;99.90
16441;DHT22;8330;-33.858;151.184;2022-08-19T00:48:29;17.50;99.90
16441;DHT22;8330;-33.858;151.184;2022-08-19T00:51:00;17.50;99.90
16441;DHT22;8330;-33.858;151.184;2022-08-19T00:53:31;17.50;99.90
16441;DHT22;8330;-33.858;151.184;2022-08-19T00:56:03;17.50;99.90
16441;DHT22;8330;-33.858;151.184;2022-08-19T00:58:36;17.50;99.90
16441;DHT22;8330;-33.858;151.184;2022-08-19T01:01:10;17.50;99.90
16441;DHT22;8330;-33.858;151.184;2022-08-19T01:03:41;17.60;99.90
16441;DHT22;8330;-33.858;151.184;2022-08-19T01:06:12;17.60;99.90
16441;DHT22;8330;-33.858;151.184;2022-08-19T01:08:43;17.70;99.90
16441;DHT22;8330;-33.858;151.184;2022-08-19T01:11:14;17.70;99.90
16441;DHT22;8330;-33.858;151.184;2022-08-19T01:13:47;17.80;99.90
16441;DHT22;8330;-33.858;151.184;2022-08-19T01:16:22;17.90;99.90
16441;DHT22;8330;-33.858;151.184;2022-08-19T01:18:54;18.10;99.90
16441;DHT22;8330;-33.858;151.184;2022-08-19T01:21:30;18.00;99.90
16441;DHT22;8330;-33.858;151.184;2022-08-19T01:24:05;18.10;99.90
16441;DHT22;8330;-33.858;151.184;2022-08-19T01:26:40;18.20;99.90
16441;DHT22;8330;-33.858;151.184;2022-08-19T01:29:13;18.30;99.90
16441;DHT22;8330;-33.858;151.184;2022-08-19T01:31:44;18.40;99.90
16441;DHT22;8330;-33.858;151.184;2022-08-19T01:34:14;18.50;99.90
16441;DHT22;8330;-33.858;151.184;2022-08-19T01:36:46;18.60;99.90
16441;DHT22;8330;-33.858;151.184;2022-08-19T01:39:22;18.70;99.90
16441;DHT22;8330;-33.858;151.184;2022-08-19T01:41:53;18.70;99.90
16441;DHT22;8330;-33.858;151.184;2022-08-19T01:44:24;18.70;99.90
16441;DHT22;8330;-33.858;151.184;2022-08-19T01:46:55;18.70;99.90
16441;DHT22;8330;-33.858;151.184;2022-08-19T01:49:27;18.90;99.90
16441;DHT22;8330;-33.858;151.184;2022-08-19T01:51:59;18.90;99.90
16441;DHT22;8330;-33.858;151.184;2022-08-19T01:54:32;18.90;99.90
16441;DHT22;8330;-33.858;151.184;2022-08-19T01:57:05;19.00;99.90
16441;DHT22;8330;-33.858;151.184;2022-08-19T01:59:38;19.10;99.90
16441;DHT22;8330;-33.858;151.184;2022-08-19T02:02:10;19.10;99.90
16441;DHT22;8330;-33.858;151.184;2022-08-19T02:04:41;19.20;99.90
16441;DHT22;8330;-33.858;151.184;2022-08-19T02:07:13;19.20;99.90
16441;DHT22;8330;-33.858;151.184;2022-08-19T02:09:46;19.10;99.90
16441;DHT22;8330;-33.858;151.184;2022-08-19T02:12:17;19.10;99.90
16441;DHT22;8330;-33.858;151.184;2022-08-19T02:14:48;19.10;99.90
16441;DHT22;8330;-33.858;151.184;2022-08-19T02:17:19;19.10;99.90
16441;DHT22;8330;-33.858;151.184;2022-08-19T02:19:49;19.10;99.90
16441;DHT22;8330;-33.858;151.184;2022-08-19T02:22:20;19.10;99.90
16441;DHT22;8330;-33.858;151.184;2022-08-19T02:24:54;19.10;99.90
16441;DHT22;8330;-33.858;151.184;2022-08-19T02:27:25;19.10;99.90
16441;DHT22;8330;-33.858;151.184;2022-08-19T02:29:55;19.10;99.90
16441;DHT22;8330;-33.858;151.184;2022-08-19T02:32:26;19.20;99.90
16441;DHT22;8330;-33.858;151.184;2022-08-19T02:34:58;19.40;99.90
16441;DHT22;8330;-33.858;151.184;2022-08-19T02:37:29;19.40;99.90
16441;DHT22;8330;-33.858;151.184;2022-08-19T02:40:17;19.50;99.90
16441;DHT22;8330;-33.858;151.184;2022-08-19T02:42:49;19.50;99.90
16441;DHT22;8330;-33.858;151.184;2022-08-19T02:45:20;19.60;99.90
16441;DHT22;8330;-33.858;151.184;2022-08-19T02:47:50;19.70;99.90
16441;DHT22;8330;-33.858;151.184;2022-08-19T02:50:21;19.90;99.90
16441;DHT22;8330;-33.858;151.184;2022-08-19T02:52:52;20.10;99.90
16441;DHT22;8330;-33.858;151.184;2022-08-19T02:55:25;20.10;99.90
16441;DHT22;8330;-33.858;151.184;2022-08-19T02:57:55;20.10;99.90
16441;DHT22;8330;-33.858;151.184;2022-08-19T03:00:27;20.00;99.90
16441;DHT22;8330;-33.858;151.184;2022-08-19T03:02:58;19.90;99.90
16441;DHT22;8330;-33.858;151.184;2022-08-19T03:05:29;19.90;99.90
16441;DHT22;8330;-33.858;151.184;2022-08-19T03:08:00;19.90;99.90
16441;DHT22;8330;-33.858;151.184;2022-08-19T03:10:33;19.90;99.90
16441;DHT22;8330;-33.858;151.184;2022-08-19T03:13:04;20.00;99.90
16441;DHT22;8330;-33.858;151.184;2022-08-19T03:15:34;20.00;99.90
16441;DHT22;8330;-33.858;151.184;2022-08-19T03:18:09;20.00;99.90
16441;DHT22;8330;-33.858;151.184;2022-08-19T03:20:43;19.90;99.90
16441;DHT22;8330;-33.858;151.184;2022-08-19T03:23:16;19.90;99.90
16441;DHT22;8330;-33.858;151.184;2022-08-19T03:25:49;20.00;99.90
16441;DHT22;8330;-33.858;151.184;2022-08-19T03:28:21;20.10;99.90
16441;DHT22;8330;-33.858;151.184;2022-08-19T03:30:59;20.10;99.90
16441;DHT22;8330;-33.858;151.184;2022-08-19T03:33:31;20.20;99.90
16441;DHT22;8330;-33.858;151.184;2022-08-19T03:36:05;20.50;99.90
16441;DHT22;8330;-33.858;151.184;2022-08-19T03:38:38;20.60;99.90
16441;DHT22;8330;-33.858;151.184;2022-08-19T03:41:12;20.70;99.90
16441;DHT22;8330;-33.858;151.184;2022-08-19T03:43:44;20.60;99.90
16441;DHT22;8330;-33.858;151.184;2022-08-19T03:46:17;20.50;99.90
16441;DHT22;8330;-33.858;151.184;2022-08-19T03:48:50;20.50;99.90
16441;DHT22;8330;-33.858;151.184;2022-08-19T03:51:24;20.40;99.90
16441;DHT22;8330;-33.858;151.184;2022-08-19T03:53:56;20.40;99.90
16441;DHT22;8330;-33.858;151.184;2022-08-19T03:56:29;20.40;99.90
16441;DHT22;8330;-33.858;151.184;2022-08-19T03:59:00;20.30;99.90
16441;DHT22;8330;-33.858;151.184;2022-08-19T04:01:31;20.20;99.90
16441;DHT22;8330;-33.858;151.184;2022-08-19T04:04:02;20.10;99.90
16441;DHT22;8330;-33.858;151.184;2022-08-19T04:06:34;20.00;99.90
16441;DHT22;8330;-33.858;151.184;2022-08-19T04:09:07;20.00;99.90
16441;DHT22;8330;-33.858;151.184;2022-08-19T04:11:46;20.00;99.90
16441;DHT22;8330;-33.858;151.184;2022-08-19T04:14:18;19.90;99.90
16441;DHT22;8330;-33.858;151.184;2022-08-19T04:16:49;19.90;99.90
16441;DHT22;8330;-33.858;151.184;2022-08-19T04:19:21;19.90;99.90
16441;DHT22;8330;-33.858;151.184;2022-08-19T04:21:54;19.90;99.90
16441;DHT22;8330;-33.858;151.184;2022-08-19T04:24:25;19.90;99.90
16441;DHT22;8330;-33.858;151.184;2022-08-19T04:26:59;20.10;99.90
16441;DHT22;8330;-33.858;151.184;2022-08-19T04:29:30;20.20;99.90
16441;DHT22;8330;-33.858;151.184;2022-08-19T04:32:01;20.30;99.90
16441;DHT22;8330;-33.858;151.184;2022-08-19T04:34:33;20.30;99.90
16441;DHT22;8330;-33.858;151.184;2022-08-19T04:37:06;20.40;99.90
16441;DHT22;8330;-33.858;151.184;2022-08-19T04:39:39;20.40;99.90
16441;DHT22;8330;-33.858;151.184;2022-08-19T04:42:33;20.40;99.90
16441;DHT22;8330;-33.858;151.184;2022-08-19T04:45:13;20.20;99.90
16441;DHT22;8330;-33.858;151.184;2022-08-19T04:47:44;20.20;99.90
16441;DHT22;8330;-33.858;151.184;2022-08-19T04:50:15;20.00;99.90
16441;DHT22;8330;-33.858;151.184;2022-08-19T04:52:46;20.00;99.90
16441;DHT22;8330;-33.858;151.184;2022-08-19T04:55:17;20.00;99.90
16441;DHT22;8330;-33.858;151.184;2022-08-19T04:57:49;19.90;99.90
16441;DHT22;8330;-33.858;151.184;2022-08-19T05:00:20;19.80;99.90
16441;DHT22;8330;-33.858;151.184;2022-08-19T05:02:51;19.70;99.90
16441;DHT22;8330;-33.858;151.184;2022-08-19T05:05:22;19.70;99.90
16441;DHT22;8330;-33.858;151.184;2022-08-19T05:07:53;19.70;99.90
16441;DHT22;8330;-33.858;151.184;2022-08-19T05:10:24;19.60;99.90
16441;DHT22;8330;-33.858;151.184;2022-08-19T05:12:56;19.60;99.90
16441;DHT22;8330;-33.858;151.184;2022-08-19T05:15:27;19.40;99.90
16441;DHT22;8330;-33.858;151.184;2022-08-19T05:17:58;19.20;99.90
16441;DHT22;8330;-33.858;151.184;2022-08-19T05:20:44;18.90;99.90
16441;DHT22;8330;-33.858;151.184;2022-08-19T05:23:31;18.70;99.90
16441;DHT22;8330;-33.858;151.184;2022-08-19T05:26:02;18.40;99.90
16441;DHT22;8330;-33.858;151.184;2022-08-19T05:28:35;18.20;99.90
16441;DHT22;8330;-33.858;151.184;2022-08-19T05:31:06;18.00;99.90
16441;DHT22;8330;-33.858;151.184;2022-08-19T05:33:37;17.80;99.90
16441;DHT22;8330;-33.858;151.184;2022-08-19T05:36:08;17.70;99.90
16441;DHT22;8330;-33.858;151.184;2022-08-19T05:38:39;17.80;99.90
16441;DHT22;8330;-33.858;151.184;2022-08-19T05:41:11;17.90;99.90
16441;DHT22;8330;-33.858;151.184;2022-08-19T05:43:44;17.90;99.90
16441;DHT22;8330;-33.858;151.184;2022-08-19T05:46:18;18.00;99.90
16441;DHT22;8330;-33.858;151.184;2022-08-19T05:48:50;18.10;99.90
16441;DHT22;8330;-33.858;151.184;2022-08-19T05:51:21;18.20;99.90
16441;DHT22;8330;-33.858;151.184;2022-08-19T05:53:54;18.20;99.90
16441;DHT22;8330;-33.858;151.184;2022-08-19T05:56:25;18.20;99.90
16441;DHT22;8330;-33.858;151.184;2022-08-19T05:59:00;18.00;99.90
16441;DHT22;8330;-33.858;151.184;2022-08-19T06:01:31;18.10;99.90
16441;DHT22;8330;-33.858;151.184;2022-08-19T06:04:02;18.10;99.90
16441;DHT22;8330;-33.858;151.184;2022-08-19T06:06:34;18.10;99.90
16441;DHT22;8330;-33.858;151.184;2022-08-19T06:09:06;18.20;99.90
16441;DHT22;8330;-33.858;151.184;2022-08-19T06:11:39;18.10;99.90
16441;DHT22;8330;-33.858;151.184;2022-08-19T06:14:14;18.10;99.90
16441;DHT22;8330;-33.858;151.184;2022-08-19T06:16:46;18.10;99.90
16441;DHT22;8330;-33.858;151.184;2022-08-19T06:19:20;18.20;99.90
16441;DHT22;8330;-33.858;151.184;2022-08-19T06:21:52;18.30;99.90
16441;DHT22;8330;-33.858;151.184;2022-08-19T06:24:24;18.50;99.90
16441;DHT22;8330;-33.858;151.184;2022-08-19T06:26:56;18.80;99.90
16441;DHT22;8330;-33.858;151.184;2022-08-19T06:29:29;19.00;99.90
16441;DHT22;8330;-33.858;151.184;2022-08-19T06:32:01;18.90;99.90
16441;DHT22;8330;-33.858;151.184;2022-08-19T06:34:34;19.00;99.90
16441;DHT22;8330;-33.858;151.184;2022-08-19T06:37:04;19.10;99.90
16441;DHT22;8330;-33.858;151.184;2022-08-19T06:39:36;18.90;99.90
16441;DHT22;8330;-33.858;151.184;2022-08-19T06:42:08;18.90;99.90
16441;DHT22;8330;-33.858;151.184;2022-08-19T06:44:42;19.00;99.90
16441;DHT22;8330;-33.858;151.184;2022-08-19T06:47:14;19.20;99.90
16441;DHT22;8330;-33.858;151.184;2022-08-19T06:49:45;19.20;99.90
16441;DHT22;8330;-33.858;151.184;2022-08-19T06:52:16;19.20;99.90
16441;DHT22;8330;-33.858;151.184;2022-08-19T06:54:47;18.90;99.90
16441;DHT22;8330;-33.858;151.184;2022-08-19T06:57:18;18.70;99.90
16441;DHT22;8330;-33.858;151.184;2022-08-19T06:59:51;18.40;99.90
16441;DHT22;8330;-33.858;151.184;2022-08-19T07:02:22;18.20;99.90
16441;DHT22;8330;-33.858;151.184;2022-08-19T07:04:54;17.80;99.90
16441;DHT22;8330;-33.858;151.184;2022-08-19T07:07:25;17.70;99.90
16441;DHT22;8330;-33.858;151.184;2022-08-19T07:09:56;17.60;99.90
16441;DHT22;8330;-33.858;151.184;2022-08-19T07:12:28;17.40;99.90
16441;DHT22;8330;-33.858;151.184;2022-08-19T07:15:02;17.20;99.90
16441;DHT22;8330;-33.858;151.184;2022-08-19T07:17:33;17.10;99.90
16441;DHT22;8330;-33.858;151.184;2022-08-19T07:20:07;17.00;99.90
16441;DHT22;8330;-33.858;151.184;2022-08-19T07:22:38;16.90;99.90
16441;DHT22;8330;-33.858;151.184;2022-08-19T07:25:10;16.90;99.90
16441;DHT22;8330;-33.858;151.184;2022-08-19T07:27:41;16.80;99.90
16441;DHT22;8330;-33.858;151.184;2022-08-19T07:30:14;16.80;99.90
16441;DHT22;8330;-33.858;151.184;2022-08-19T07:32:45;16.70;99.90
16441;DHT22;8330;-33.858;151.184;2022-08-19T07:35:18;16.50;99.90
16441;DHT22;8330;-33.858;151.184;2022-08-19T07:37:49;16.50;99.90
16441;DHT22;8330;-33.858;151.184;2022-08-19T07:40:20;16.40;99.90
16441;DHT22;8330;-33.858;151.184;2022-08-19T07:42:51;16.30;99.90
16441;DHT22;8330;-33.858;151.184;2022-08-19T07:45:24;16.30;99.90
16441;DHT22;8330;-33.858;151.184;2022-08-19T07:47:55;16.20;99.90
16441;DHT22;8330;-33.858;151.184;2022-08-19T07:50:46;16.20;99.90
16441;DHT22;8330;-33.858;151.184;2022-08-19T07:53:20;16.20;99.90
16441;DHT22;8330;-33.858;151.184;2022-08-19T07:56:35;16.20;99.90
16441;DHT22;8330;-33.858;151.184;2022-08-19T07:59:09;16.20;99.90
16441;DHT22;8330;-33.858;151.184;2022-08-19T08:01:45;16.20;99.90
16441;DHT22;8330;-33.858;151.184;2022-08-19T08:04:18;16.10;99.90
16441;DHT22;8330;-33.858;151.184;2022-08-19T08:07:08;16.10;99.90
16441;DHT22;8330;-33.858;151.184;2022-08-19T08:09:55;16.10;99.90
16441;DHT22;8330;-33.858;151.184;2022-08-19T08:12:27;16.00;99.90
16441;DHT22;8330;-33.858;151.184;2022-08-19T08:15:00;16.00;99.90
16441;DHT22;8330;-33.858;151.184;2022-08-19T08:17:34;15.90;99.90
16441;DHT22;8330;-33.858;151.184;2022-08-19T08:20:05;15.80;99.90
16441;DHT22;8330;-33.858;151.184;2022-08-19T08:22:36;15.70;99.90
16441;DHT22;8330;-33.858;151.184;2022-08-19T08:25:23;15.70;99.90
16441;DHT22;8330;-33.858;151.184;2022-08-19T08:27:54;15.70;99.90
16441;DHT22;8330;-33.858;151.184;2022-08-19T08:30:28;15.70;99.90
16441;DHT22;8330;-33.858;151.184;2022-08-19T08:33:05;15.70;99.90
16441;DHT22;8330;-33.858;151.184;2022-08-19T08:35:36;15.70;99.90
16441;DHT22;8330;-33.858;151.184;2022-08-19T08:38:07;15.70;99.90
16441;DHT22;8330;-33.858;151.184;2022-08-19T08:40:43;15.60;99.90
16441;DHT22;8330;-33.858;151.184;2022-08-19T08:43:24;15.60;99.90
16441;DHT22;8330;-33.858;151.184;2022-08-19T08:46:03;15.60;99.90
16441;DHT22;8330;-33.858;151.184;2022-08-19T08:48:41;15.60;99.90
16441;DHT22;8330;-33.858;151.184;2022-08-19T08:51:18;15.60;99.90
16441;DHT22;8330;-33.858;151.184;2022-08-19T08:53:52;15.60;99.90
16441;DHT22;8330;-33.858;151.184;2022-08-19T08:56:23;15.50;99.90
16441;DHT22;8330;-33.858;151.184;2022-08-19T08:58:58;15.40;99.90
16441;DHT22;8330;-33.858;151.184;2022-08-19T09:01:29;15.40;99.90
16441;DHT22;8330;-33.858;151.184;2022-08-19T09:04:04;15.40;99.90
16441;DHT22;8330;-33.858;151.184;2022-08-19T09:06:40;15.40;99.90
16441;DHT22;8330;-33.858;151.184;2022-08-19T09:09:18;15.40;99.90
16441;DHT22;8330;-33.858;151.184;2022-08-19T09:11:55;15.30;99.90
16441;DHT22;8330;-33.858;151.184;2022-08-19T09:14:35;15.20;99.90
16441;DHT22;8330;-33.858;151.184;2022-08-19T09:17:09;15.20;99.90
16441;DHT22;8330;-33.858;151.184;2022-08-19T09:19:51;15.20;99.90
16441;DHT22;8330;-33.858;151.184;2022-08-19T09:22:23;15.20;99.90
16441;DHT22;8330;-33.858;151.184;2022-08-19T09:24:54;15.10;99.90
16441;DHT22;8330;-33.858;151.184;2022-08-19T09:27:26;15.10;99.90
16441;DHT22;8330;-33.858;151.184;2022-08-19T09:29:57;15.10;99.90
16441;DHT22;8330;-33.858;151.184;2022-08-19T09:32:28;15.00;99.90
16441;DHT22;8330;-33.858;151.184;2022-08-19T09:35:01;15.00;99.90
16441;DHT22;8330;-33.858;151.184;2022-08-19T09:37:34;15.00;99.90
16441;DHT22;8330;-33.858;151.184;2022-08-19T09:40:06;15.00;99.90
16441;DHT22;8330;-33.858;151.184;2022-08-19T09:42:37;15.00;99.90
16441;DHT22;8330;-33.858;151.184;2022-08-19T09:45:09;15.00;99.90
16441;DHT22;8330;-33.858;151.184;2022-08-19T09:47:40;15.00;99.90
16441;DHT22;8330;-33.858;151.184;2022-08-19T09:50:13;14.90;99.90
16441;DHT22;8330;-33.858;151.184;2022-08-19T09:52:46;14.90;99.90
16441;DHT22;8330;-33.858;151.184;2022-08-19T09:55:17;14.90;99.90
16441;DHT22;8330;-33.858;151.184;2022-08-19T09:57:47;14.90;99.90
16441;DHT22;8330;-33.858;151.184;2022-08-19T10:00:18;14.90;99.90
16441;DHT22;8330;-33.858;151.184;2022-08-19T10:02:49;14.80;99.90
16441;DHT22;8330;-33.858;151.184;2022-08-19T10:05:22;14.80;99.90
16441;DHT22;8330;-33.858;151.184;2022-08-19T10:08:09;14.80;99.90
16441;DHT22;8330;-33.858;151.184;2022-08-19T10:10:40;14.70;99.90
16441;DHT22;8330;-33.858;151.184;2022-08-19T10:13:12;14.70;99.90
16441;DHT22;8330;-33.858;151.184;2022-08-19T10:15:43;14.70;99.90
16441;DHT22;8330;-33.858;151.184;2022-08-19T10:18:14;14.70;99.90
16441;DHT22;8330;-33.858;151.184;2022-08-19T10:20:49;14.60;99.90
16441;DHT22;8330;-33.858;151.184;2022-08-19T10:23:21;14.60;99.90
16441;DHT22;8330;-33.858;151.184;2022-08-19T10:25:52;14.60;99.90
16441;DHT22;8330;-33.858;151.184;2022-08-19T10:28:23;14.60;99.90
16441;DHT22;8330;-33.858;151.184;2022-08-19T10:30:54;14.70;99.90
16441;DHT22;8330;-33.858;151.184;2022-08-19T10:33:24;14.60;99.90
16441;DHT22;8330;-33.858;151.184;2022-08-19T10:36:02;14.60;99.90
16441;DHT22;8330;-33.858;151.184;2022-08-19T10:38:33;14.60;99.90
16441;DHT22;8330;-33.858;151.184;2022-08-19T10:41:12;14.60;99.90
16441;DHT22;8330;-33.858;151.184;2022-08-19T10:43:44;14.60;99.90
16441;DHT22;8330;-33.858;151.184;2022-08-19T10:46:16;14.60;99.90
16441;DHT22;8330;-33.858;151.184;2022-08-19T10:48:47;14.50;99.90
16441;DHT22;8330;-33.858;151.184;2022-08-19T10:51:23;14.50;99.90
16441;DHT22;8330;-33.858;151.184;2022-08-19T10:54:09;14.50;99.90
16441;DHT22;8330;-33.858;151.184;2022-08-19T10:56:40;14.50;99.90
16441;DHT22;8330;-33.858;151.184;2022-08-19T10:59:24;14.50;99.90
16441;DHT22;8330;-33.858;151.184;2022-08-19T11:01:59;14.50;99.90
16441;DHT22;8330;-33.858;151.184;2022-08-19T11:04:30;14.40;99.90
16441;DHT22;8330;-33.858;151.184;2022-08-19T11:07:03;14.30;99.90
16441;DHT22;8330;-33.858;151.184;2022-08-19T11:09:39;14.30;99.90
16441;DHT22;8330;-33.858;151.184;2022-08-19T11:12:11;14.20;99.90
16441;DHT22;8330;-33.858;151.184;2022-08-19T11:14:43;14.20;99.90
16441;DHT22;8330;-33.858;151.184;2022-08-19T11:17:13;14.20;99.90
16441;DHT22;8330;-33.858;151.184;2022-08-19T11:19:44;14.20;99.90
16441;DHT22;8330;-33.858;151.184;2022-08-19T11:22:19;14.10;99.90
16441;DHT22;8330;-33.858;151.184;2022-08-19T11:24:49;14.10;99.90
16441;DHT22;8330;-33.858;151.184;2022-08-19T11:27:20;14.10;99.90
16441;DHT22;8330;-33.858;151.184;2022-08-19T11:29:51;14.00;99.90
16441;DHT22;8330;-33.858;151.184;2022-08-19T11:32:22;14.10;99.90
16441;DHT22;8330;-33.858;151.184;2022-08-19T11:34:53;14.10;99.90
16441;DHT22;8330;-33.858;151.184;2022-08-19T11:37:26;14.00;99.90
16441;DHT22;8330;-33.858;151.184;2022-08-19T11:39:57;14.00;99.90
16441;DHT22;8330;-33.858;151.184;2022-08-19T11:42:28;14.00;99.90
16441;DHT22;8330;-33.858;151.184;2022-08-19T11:45:14;14.00;99.90
16441;DHT22;8330;-33.858;151.184;2022-08-19T11:47:45;14.00;99.90
16441;DHT22;8330;-33.858;151.184;2022-08-19T11:50:17;14.10;99.90
16441;DHT22;8330;-33.858;151.184;2022-08-19T11:52:49;14.10;99.90
16441;DHT22;8330;-33.858;151.184;2022-08-19T11:55:22;14.10;99.90
16441;DHT22;8330;-33.858;151.184;2022-08-19T11:57:53;14.10;99.90
16441;DHT22;8330;-33.858;151.184;2022-08-19T12:00:23;14.10;99.90
16441;DHT22;8330;-33.858;151.184;2022-08-19T12:02:54;14.10;99.90
16441;DHT22;8330;-33.858;151.184;2022-08-19T12:05:25;14.10;99.90
16441;DHT22;8330;-33.858;151.184;2022-08-19T12:07:59;14.10;99.90
16441;DHT22;8330;-33.858;151.184;2022-08-19T12:10:30;14.10;99.90
16441;DHT22;8330;-33.858;151.184;2022-08-19T12:13:01;14.10;99.90
16441;DHT22;8330;-33.858;151.184;2022-08-19T12:15:36;14.00;99.90
16441;DHT22;8330;-33.858;151.184;2022-08-19T12:18:08;14.00;99.90
16441;DHT22;8330;-33.858;151.184;2022-08-19T12:20:42;14.00;99.90
16441;DHT22;8330;-33.858;151.184;2022-08-19T12:23:15;14.00;99.90
16441;DHT22;8330;-33.858;151.184;2022-08-19T12:25:48;14.00;99.90
16441;DHT22;8330;-33.858;151.184;2022-08-19T12:28:20;14.00;99.90
16441;DHT22;8330;-33.858;151.184;2022-08-19T12:30:53;14.00;99.90
16441;DHT22;8330;-33.858;151.184;2022-08-19T12:33:23;14.00;99.90
16441;DHT22;8330;-33.858;151.184;2022-08-19T12:35:59;14.00;99.90
16441;DHT22;8330;-33.858;151.184;2022-08-19T12:38:33;13.90;99.90
16441;DHT22;8330;-33.858;151.184;2022-08-19T12:41:04;13.90;99.90
16441;DHT22;8330;-33.858;151.184;2022-08-19T12:43:36;14.00;99.90
16441;DHT22;8330;-33.858;151.184;2022-08-19T12:46:07;13.90;99.90
16441;DHT22;8330;-33.858;151.184;2022-08-19T12:48:39;13.90;99.90
16441;DHT22;8330;-33.858;151.184;2022-08-19T12:51:16;13.90;99.90
16441;DHT22;8330;-33.858;151.184;2022-08-19T12:53:50;13.80;99.90
16441;DHT22;8330;-33.858;151.184;2022-08-19T12:56:22;13.80;99.90
16441;DHT22;8330;-33.858;151.184;2022-08-19T12:58:53;13.70;99.90
16441;DHT22;8330;-33.858;151.184;2022-08-19T13:01:24;13.70;99.90
16441;DHT22;8330;-33.858;151.184;2022-08-19T13:03:55;13.70;99.90
16441;DHT22;8330;-33.858;151.184;2022-08-19T13:06:26;13.70;99.90
16441;DHT22;8330;-33.858;151.184;2022-08-19T13:08:59;13.70;99.90
16441;DHT22;8330;-33.858;151.184;2022-08-19T13:11:29;13.70;99.90
16441;DHT22;8330;-33.858;151.184;2022-08-19T13:14:02;13.70;99.90
16441;DHT22;8330;-33.858;151.184;2022-08-19T13:16:33;13.70;99.90
16441;DHT22;8330;-33.858;151.184;2022-08-19T13:19:04;13.60;99.90
16441;DHT22;8330;-33.858;151.184;2022-08-19T13:21:35;13.60;99.90
16441;DHT22;8330;-33.858;151.184;2022-08-19T13:24:08;13.60;99.90
16441;DHT22;8330;-33.858;151.184;2022-08-19T13:26:39;13.60;99.90
16441;DHT22;8330;-33.858;151.184;2022-08-19T13:29:09;13.60;99.90
16441;DHT22;8330;-33.858;151.184;2022-08-19T13:31:56;13.50;99.90
16441;DHT22;8330;-33.858;151.184;2022-08-19T13:34:59;13.60;99.90
16441;DHT22;8330;-33.858;151.184;2022-08-19T13:37:30;13.60;99.90
16441;DHT22;8330;-33.858;151.184;2022-08-19T13:40:16;13.70;99.90
16441;DHT22;8330;-33.858;151.184;2022-08-19T13:42:48;13.70;99.90
16441;DHT22;8330;-33.858;151.184;2022-08-19T13:45:20;13.70;99.90
16441;DHT22;8330;-33.858;151.184;2022-08-19T13:47:52;13.70;99.90
16441;DHT22;8330;-33.858;151.184;2022-08-19T13:50:27;13.70;99.90
16441;DHT22;8330;-33.858;151.184;2022-08-19T13:52:59;13.60;99.90
16441;DHT22;8330;-33.858;151.184;2022-08-19T13:55:33;13.70;99.90
16441;DHT22;8330;-33.858;151.184;2022-08-19T13:58:04;13.70;99.90
16441;DHT22;8330;-33.858;151.184;2022-08-19T14:00:37;13.70;99.90
16441;DHT22;8330;-33.858;151.184;2022-08-19T14:03:08;13.70;99.90
16441;DHT22;8330;-33.858;151.184;2022-08-19T14:05:39;13.70;99.90
16441;DHT22;8330;-33.858;151.184;2022-08-19T14:08:10;13.70;99.90
16441;DHT22;8330;-33.858;151.184;2022-08-19T14:10:43;13.70;99.90
16441;DHT22;8330;-33.858;151.184;2022-08-19T14:13:16;13.70;99.90
16441;DHT22;8330;-33.858;151.184;2022-08-19T14:15:47;13.70;99.90
16441;DHT22;8330;-33.858;151.184;2022-08-19T14:18:18;13.70;99.90
16441;DHT22;8330;-33.858;151.184;2022-08-19T14:20:49;13.70;99.90
16441;DHT22;8330;-33.858;151.184;2022-08-19T14:23:20;13.70;99.90
16441;DHT22;8330;-33.858;151.184;2022-08-19T14:25:53;13.70;99.90
16441;DHT22;8330;-33.858;151.184;2022-08-19T14:28:24;13.60;99.90
16441;DHT22;8330;-33.858;151.184;2022-08-19T14:30:56;13.60;99.90
16441;DHT22;8330;-33.858;151.184;2022-08-19T14:33:28;13.60;99.90
16441;DHT22;8330;-33.858;151.184;2022-08-19T14:35:59;13.60;99.90
16441;DHT22;8330;-33.858;151.184;2022-08-19T14:38:30;13.60;99.90
16441;DHT22;8330;-33.858;151.184;2022-08-19T14:41:11;13.60;99.90
16441;DHT22;8330;-33.858;151.184;2022-08-19T14:43:45;13.60;99.90
16441;DHT22;8330;-33.858;151.184;2022-08-19T14:46:18;13.60;99.90
16441;DHT22;8330;-33.858;151.184;2022-08-19T14:48:50;13.60;99.90
16441;DHT22;8330;-33.858;151.184;2022-08-19T14:51:21;13.50;99.90
16441;DHT22;8330;-33.858;151.184;2022-08-19T14:53:52;13.50;99.90
16441;DHT22;8330;-33.858;151.184;2022-08-19T14:56:26;13.50;99.90
16441;DHT22;8330;-33.858;151.184;2022-08-19T14:58:58;13.50;99.90
16441;DHT22;8330;-33.858;151.184;2022-08-19T15:01:29;13.50;99.90
16441;DHT22;8330;-33.858;151.184;2022-08-19T15:03:59;13.40;99.90
16441;DHT22;8330;-33.858;151.184;2022-08-19T15:06:30;13.50;99.90
16441;DHT22;8330;-33.858;151.184;2022-08-19T15:09:02;13.50;99.90
16441;DHT22;8330;-33.858;151.184;2022-08-19T15:11:35;13.40;99.90
16441;DHT22;8330;-33.858;151.184;2022-08-19T15:14:06;13.40;99.90
16441;DHT22;8330;-33.858;151.184;2022-08-19T15:16:37;13.40;99.90
16441;DHT22;8330;-33.858;151.184;2022-08-19T15:19:09;13.40;99.90
16441;DHT22;8330;-33.858;151.184;2022-08-19T15:21:40;13.50;99.90
16441;DHT22;8330;-33.858;151.184;2022-08-19T15:24:11;13.50;99.90
16441;DHT22;8330;-33.858;151.184;2022-08-19T15:26:44;13.50;99.90
16441;DHT22;8330;-33.858;151.184;2022-08-19T15:29:15;13.50;99.90
16441;DHT22;8330;-33.858;151.184;2022-08-19T15:31:45;13.40;99.90
16441;DHT22;8330;-33.858;151.184;2022-08-19T15:34:18;13.50;99.90
16441;DHT22;8330;-33.858;151.184;2022-08-19T15:36:49;13.40;99.90